Bavaria

Go HERE for most recent data if this page is not up to date.

Jump to table bottom
Date Time Temp F RH % AVG Wind Max Wind Wind Dir 24 Snow Depth
*01/29/20 08 13.9 88 5 14 SW - 235 0.5 69.1
*01/29/20 07 14.0 89 5 12 E - 69 0.3 69.0
*01/29/20 06 14.2 81 4 10 NE - 41 0.1 68.6
*01/29/20 05 16.2 89 2 6 SE - 150 0.2 69.6
*01/29/20 04 16.2 87 3 9 SE - 136 0.2 151.3
*01/29/20 03 16.7 82 2 10 E - 79 0.3 151.3
*01/29/20 02 17.2 86 2 6 N - 12 0.3 151.3
*01/29/20 01 17.4 87 2 4 E - 107 0.5 151.3
*01/29/20 00 17.6 84 3 7 SE - 138 0.5 -28.5
*01/28/20 23 17.6 83 1 4 N - 341 0.5 151.3
*01/28/20 22 17.9 82 3 8 SW - 235 0.5 -29.1
*01/28/20 21 18.1 76 3 9 E - 76 0.5 -28.9
*01/28/20 20 17.5 81 2 6 S - 176 0.5 151.3
*01/28/20 19 17.6 88 3 7 SE - 123 0.5 151.3
*01/28/20 18 17.9 84 6 11 W - 249 0.1 151.3
*01/28/20 17 18.7 84 8 15 W - 278 0.1 69.9
*01/28/20 16 19.1 81 7 14 W - 251 0.0 69.9
*01/28/20 15 20.3 77 7 12 SW - 225 0.0 151.3
*01/28/20 14 20.3 86 10 15 W - 273 4.8 151.3
*01/28/20 13 19.9 88 10 17 SW - 241 3.6 151.3
*01/28/20 12 20.8 87 4 7 SW - 220 3.4 151.3
*01/28/20 11 21.5 81 2 4 SW - 239 2.5 151.3
*01/28/20 10 20.2 82 3 10 W - 270 1.7 151.3
*01/28/20 09 17.9 81 1 5 E - 98 1.5 151.3
*01/28/20 08 17.7 80 8 16 W - 267 1.7 151.3
*01/28/20 07 17.8 79 10 15 SW - 243 1.8 151.3
*01/28/20 06 17.8 78 11 18 SW - 232 1.8 151.3
*01/28/20 05 17.2 78 13 20 SW - 235 1.7 151.3
*01/28/20 04 17.1 82 15 27 W - 262 2.2 67.8
*01/28/20 03 15.0 79 11 17 SW - 247 0.5 -11.8
*01/28/20 02 11.9 79 13 18 W - 255 2.3 67.1
*01/28/20 01 10.6 84 8 13 W - 266 2.4 -11.0
*01/28/20 00 10.9 85 8 15 W - 248 2.3 -10.9
.